Mans Punta del Este, Puerto Rico
Current Conditions -  °F | °C
As of 8:53 PM on Tuesday 25 Nov 2014 (Local Time) from TJNR Reporting Station
Broken Clouds Broken Clouds  
Wind Chill: 80°   Ceiling: 3600
Heat Index: 84°   Visibility: 10mi
Dew Point: 72°   Wind: 12mph
Humidity: 76%   Direction: 100°E
Pressure: 30.05"   Gusts: NA
Location:  18.3304°N, 65.6573°W
Report Text: TJNR 260053Z AUTO 10010KT 10SM FEW027 BKN036 BKN048 27/22 A3005 RMK AO2 SLP175 T02670222 $
Loading
Personal Weather Stations






























Interactive Weather Map New forecast layout! Learn more

10-Day Weather Forecast

Advertisements
Track Severe Weather on mobile